createdAt,value
2022-08-05T00:01:28.576Z,100982.63
2022-08-05T00:03:57.229Z,100976.34
2022-08-05T00:06:30.791Z,100978.63
2022-08-05T00:09:00.640Z,100973.25
2022-08-05T00:11:34.591Z,100975.94
2022-08-05T00:14:12.834Z,100976.63
2022-08-05T00:16:52.561Z,100971.50
2022-08-05T00:19:24.681Z,100973.63
2022-08-05T00:21:52.552Z,100967.38
2022-08-05T00:24:24.696Z,100963.78
2022-08-05T00:26:57.650Z,100967.50
2022-08-05T00:29:25.959Z,100970.78
2022-08-05T00:32:10.920Z,100963.81
2022-08-05T00:34:55.131Z,100958.28
2022-08-05T00:37:50.510Z,100965.66
2022-08-05T00:40:14.814Z,100966.41
2022-08-05T00:42:48.256Z,100960.56
2022-08-05T00:45:16.694Z,100961.53
2022-08-05T00:47:57.778Z,100959.13
2022-08-05T00:50:31.934Z,100957.56
2022-08-05T00:52:58.536Z,100966.25
2022-08-05T00:55:42.399Z,100963.94
2022-08-05T00:58:13.747Z,100972.50
2022-08-05T01:00:42.253Z,100963.13
2022-08-05T01:03:22.406Z,100969.34
2022-08-05T01:05:51.201Z,100967.66
2022-08-05T01:08:40.188Z,100979.31
2022-08-05T01:11:36.648Z,100974.63
2022-08-05T01:14:27.879Z,100974.63
2022-08-05T01:17:07.659Z,100971.06
2022-08-05T01:20:00.912Z,100972.06
2022-08-05T01:22:42.969Z,100967.19
2022-08-05T01:25:53.339Z,100970.09
2022-08-05T01:28:26.643Z,100966.94
2022-08-05T01:31:08.525Z,100962.66
2022-08-05T01:33:48.990Z,100961.97
2022-08-05T01:36:21.173Z,100972.78
2022-08-05T01:38:56.463Z,100967.81
2022-08-05T01:41:32.288Z,100964.81
2022-08-05T01:44:01.339Z,100962.38
2022-08-05T01:46:41.620Z,100968.38
2022-08-05T01:49:23.406Z,100956.06
2022-08-05T01:51:55.959Z,100957.78
2022-08-05T01:54:27.133Z,100946.09
2022-08-05T01:58:29.499Z,100951.00
2022-08-05T01:59:47.203Z,100951.53
2022-08-05T02:02:16.012Z,100954.25
2022-08-05T02:04:49.703Z,100956.69
2022-08-05T02:07:22.228Z,100952.59
2022-08-05T02:09:51.260Z,100946.69
2022-08-05T02:12:20.753Z,100936.28
2022-08-05T02:15:00.852Z,100943.84
2022-08-05T02:18:31.138Z,100943.84
2022-08-05T02:20:25.073Z,100943.84
2022-08-05T02:23:08.840Z,100941.25
2022-08-05T02:25:50.012Z,100940.25
2022-08-05T02:28:29.003Z,100941.50
2022-08-05T02:31:05.954Z,100940.91
2022-08-05T02:33:40.917Z,100935.09
2022-08-05T02:36:13.555Z,100937.34
2022-08-05T02:38:53.348Z,100933.19
2022-08-05T02:41:22.982Z,100934.91
2022-08-05T02:44:06.241Z,100934.06
2022-08-05T02:46:53.114Z,100926.66
2022-08-05T02:49:36.215Z,100928.50
2022-08-05T02:52:11.595Z,100935.22
2022-08-05T02:54:42.809Z,100924.97
2022-08-05T02:58:11.474Z,100924.63
2022-08-05T03:00:09.864Z,100930.03
2022-08-05T03:02:42.933Z,100935.44
2022-08-05T03:05:12.655Z,100924.38
2022-08-05T03:08:00.584Z,100928.41
2022-08-05T03:10:27.900Z,100930.66
2022-08-05T03:12:55.026Z,100929.81
2022-08-05T03:15:23.515Z,100936.22
2022-08-05T03:17:54.264Z,100932.78
2022-08-05T03:20:24.256Z,100935.44
2022-08-05T03:22:51.338Z,100936.91
2022-08-05T03:25:33.342Z,100936.22
2022-08-05T03:28:10.855Z,100936.22
2022-08-05T03:30:41.280Z,100936.38
2022-08-05T03:33:09.471Z,100932.41
2022-08-05T03:35:40.522Z,100938.25
2022-08-05T03:38:12.728Z,100942.38
2022-08-05T03:40:47.515Z,100935.56
2022-08-05T03:44:10.015Z,100939.81
2022-08-05T03:46:04.492Z,100925.97
2022-08-05T03:48:35.339Z,100926.97
2022-08-05T03:52:38.509Z,100929.25
2022-08-05T03:55:00.289Z,100925.75
2022-08-05T03:56:54.637Z,100932.78
2022-08-05T03:59:54.315Z,100930.44
2022-08-05T04:02:38.813Z,100926.63
2022-08-05T04:05:09.950Z,100938.50
2022-08-05T04:07:57.454Z,100936.22
2022-08-05T04:10:28.417Z,100937.81
2022-08-05T04:13:00.040Z,100938.91
2022-08-05T04:15:32.728Z,100943.06
2022-08-05T04:18:03.942Z,100946.56
2022-08-05T04:20:34.308Z,100954.09
2022-08-05T04:23:01.125Z,100954.69
2022-08-05T04:25:56.887Z,100951.69
2022-08-05T04:28:17.204Z,100962.88
2022-08-05T04:30:44.709Z,100968.72
2022-08-05T04:33:12.366Z,100963.38
2022-08-05T04:36:15.864Z,100966.88
2022-08-05T04:38:39.983Z,100970.75
2022-08-05T04:41:09.342Z,100966.56
2022-08-05T04:43:37.681Z,100958.81
2022-08-05T04:46:07.363Z,100972.56
2022-08-05T04:48:34.243Z,100967.69
2022-08-05T04:51:11.086Z,100970.13
2022-08-05T04:53:38.870Z,100974.00
2022-08-05T04:56:15.129Z,100973.66
2022-08-05T04:58:56.890Z,100973.94
2022-08-05T05:02:06.350Z,100974.06
2022-08-05T05:04:10.673Z,100970.50
2022-08-05T05:06:44.168Z,100962.03
2022-08-05T05:09:14.248Z,100961.09
2022-08-05T05:11:53.151Z,100965.53
2022-08-05T05:14:31.432Z,100952.72
2022-08-05T05:17:00.027Z,100960.13
2022-08-05T05:19:27.462Z,100964.97
2022-08-05T05:22:22.751Z,100965.22
2022-08-05T05:24:56.916Z,100957.44
2022-08-05T05:27:44.867Z,100960.72
2022-08-05T05:30:15.288Z,100968.44
2022-08-05T05:32:55.705Z,100969.47
2022-08-05T05:35:23.309Z,100965.19
2022-08-05T05:38:01.339Z,100966.63
2022-08-05T05:40:32.073Z,100961.22
2022-08-05T05:42:59.946Z,100965.94
2022-08-05T05:45:29.338Z,100965.19
2022-08-05T05:48:07.834Z,100959.31
2022-08-05T05:50:41.323Z,100960.69
2022-08-05T05:53:21.454Z,100966.31
2022-08-05T05:55:51.606Z,100976.44
2022-08-05T05:58:31.420Z,100975.03
2022-08-05T06:01:13.077Z,100975.47
2022-08-05T06:04:00.630Z,100971.50
2022-08-05T06:06:30.957Z,100959.53
2022-08-05T06:09:00.586Z,100969.47
2022-08-05T06:11:29.015Z,100958.19
2022-08-05T06:13:56.677Z,100966.38
2022-08-05T06:16:29.065Z,100977.66
2022-08-05T06:19:00.015Z,100969.56
2022-08-05T06:21:35.773Z,100972.91
2022-08-05T06:24:11.426Z,100976.34
2022-08-05T06:26:51.343Z,100969.50
2022-08-05T06:29:24.963Z,100968.94
2022-08-05T06:32:17.231Z,100980.31
2022-08-05T06:34:56.621Z,100969.50
2022-08-05T06:37:56.926Z,100979.59
2022-08-05T06:40:12.750Z,100979.03
2022-08-05T06:42:40.780Z,100978.59
2022-08-05T06:45:09.183Z,100972.66
2022-08-05T06:48:35.996Z,100974.38
2022-08-05T06:50:23.785Z,100973.78
2022-08-05T06:52:58.548Z,100983.91
2022-08-05T06:55:30.319Z,100987.69
2022-08-05T06:58:19.925Z,100983.59
2022-08-05T07:00:47.449Z,100982.28
2022-08-05T07:03:15.232Z,100985.84
2022-08-05T07:05:43.466Z,100984.28
2022-08-05T07:08:10.930Z,100977.13
2022-08-05T07:10:53.364Z,100986.44
2022-08-05T07:13:57.583Z,100984.19
2022-08-05T07:18:01.492Z,100987.59
2022-08-05T07:22:28.747Z,100982.25
2022-08-05T07:24:58.190Z,100982.84
2022-08-05T07:27:27.617Z,100987.41
2022-08-05T07:30:27.640Z,100987.72
2022-08-05T07:32:57.785Z,100985.31
2022-08-05T07:36:03.255Z,100980.13
2022-08-05T07:38:12.340Z,100976.94
2022-08-05T07:41:00.409Z,100969.97
2022-08-05T07:43:31.456Z,100977.63
2022-08-05T07:46:01.694Z,100974.13
2022-08-05T07:49:01.972Z,100975.97
2022-08-05T07:51:23.557Z,100974.72
2022-08-05T07:54:02.692Z,100977.44
2022-08-05T07:56:49.018Z,100979.41
2022-08-05T07:59:16.795Z,100971.72
2022-08-05T08:01:52.212Z,100976.84
2022-08-05T08:04:37.426Z,100974.72
2022-08-05T08:07:07.134Z,100970.13
2022-08-05T08:09:34.636Z,100970.69
2022-08-05T08:12:11.179Z,100975.91
2022-08-05T08:14:46.596Z,100971.44
2022-08-05T08:17:15.722Z,100976.63
2022-08-05T08:20:10.693Z,100968.06
2022-08-05T08:22:31.065Z,100973.91
2022-08-05T08:25:03.213Z,100965.47
2022-08-05T08:27:40.021Z,100975.16
2022-08-05T08:30:18.977Z,100974.41
2022-08-05T08:32:56.992Z,100966.72
2022-08-05T08:35:26.781Z,100962.94
2022-08-05T08:37:56.454Z,100966.91
2022-08-05T08:40:24.408Z,100958.50
2022-08-05T08:42:53.462Z,100963.63
2022-08-05T08:45:26.977Z,100963.91
2022-08-05T08:48:07.566Z,100958.81
2022-08-05T08:51:03.583Z,100958.06
2022-08-05T08:53:44.485Z,100952.84
2022-08-05T08:56:12.182Z,100955.13
2022-08-05T08:58:44.666Z,100947.81
2022-08-05T09:01:17.073Z,100945.56
2022-08-05T09:03:48.243Z,100956.88
2022-08-05T09:06:21.213Z,100958.66
2022-08-05T09:08:50.733Z,100950.09
2022-08-05T09:11:17.428Z,100954.25
2022-08-05T09:14:54.334Z,100955.56
2022-08-05T09:16:51.848Z,100949.31
2022-08-05T09:19:19.157Z,100952.03
2022-08-05T09:22:23.170Z,100951.75
2022-08-05T09:24:44.856Z,100951.69
2022-08-05T09:28:05.094Z,100940.78
2022-08-05T09:30:18.374Z,100938.28
2022-08-05T09:32:51.691Z,100939.28
2022-08-05T09:35:26.775Z,100940.50
2022-08-05T09:38:16.907Z,100938.22
2022-08-05T09:40:52.198Z,100941.38
2022-08-05T09:43:28.232Z,100940.00
2022-08-05T09:46:28.029Z,100935.38
2022-08-05T09:49:08.291Z,100937.19
2022-08-05T09:51:43.185Z,100924.28
2022-08-05T09:54:11.439Z,100914.78
2022-08-05T09:56:39.555Z,100916.63
2022-08-05T09:59:07.379Z,100918.00
2022-08-05T10:01:40.605Z,100919.97
2022-08-05T10:04:16.095Z,100916.13
2022-08-05T10:06:59.578Z,100906.31
2022-08-05T10:09:29.318Z,100899.56
2022-08-05T10:12:30.530Z,100895.91
2022-08-05T10:15:17.015Z,100903.59
2022-08-05T10:17:54.496Z,100892.66
2022-08-05T10:20:25.785Z,100897.00
2022-08-05T10:22:52.910Z,100894.81
2022-08-05T10:25:20.103Z,100896.84
2022-08-05T10:28:12.823Z,100894.31
2022-08-05T10:32:47.089Z,100894.81
2022-08-05T10:33:28.844Z,100894.09
2022-08-05T10:35:59.852Z,100882.81
2022-08-05T10:38:29.730Z,100878.22
2022-08-05T10:41:24.008Z,100876.78
2022-08-05T10:44:01.428Z,100876.53
2022-08-05T10:46:53.974Z,100876.19
2022-08-05T10:49:26.922Z,100886.84
2022-08-05T10:52:02.551Z,100871.31
2022-08-05T10:55:03.540Z,100871.91
2022-08-05T10:57:33.765Z,100864.78
2022-08-05T11:00:19.098Z,100863.41
2022-08-05T11:03:23.228Z,100874.06
2022-08-05T11:06:15.651Z,100866.03
2022-08-05T11:09:16.365Z,100861.72
2022-08-05T11:11:52.391Z,100857.28
2022-08-05T11:14:42.772Z,100862.63
2022-08-05T11:17:57.922Z,100862.38
2022-08-05T11:20:43.897Z,100861.47
2022-08-05T11:23:33.578Z,100868.19
2022-08-05T11:26:16.704Z,100858.47
2022-08-05T11:28:56.784Z,100856.53
2022-08-05T11:31:57.433Z,100857.41
2022-08-05T11:34:36.963Z,100850.84
2022-08-05T11:37:06.171Z,100856.75
2022-08-05T11:39:55.211Z,100846.69
2022-08-05T11:42:27.930Z,100854.53
2022-08-05T11:47:49.639Z,100840.34
2022-08-05T11:50:17.816Z,100845.91
2022-08-05T11:52:48.418Z,100842.03
2022-08-05T11:55:16.632Z,100853.31
2022-08-05T11:58:09.556Z,100843.34
2022-08-05T12:00:38.028Z,100851.91
2022-08-05T12:03:28.494Z,100843.69
2022-08-05T12:06:01.711Z,100836.59
2022-08-05T12:08:31.700Z,100840.69
2022-08-05T12:11:05.526Z,100842.53
2022-08-05T12:13:48.889Z,100842.19
2022-08-05T12:16:20.052Z,100845.59
2022-08-05T12:18:56.503Z,100831.84
2022-08-05T12:21:29.865Z,100832.50
2022-08-05T12:24:05.091Z,100828.25
2022-08-05T12:26:44.167Z,100829.56
2022-08-05T12:29:38.721Z,100822.28
2022-08-05T12:32:07.615Z,100826.28
2022-08-05T12:34:37.828Z,100824.53
2022-08-05T12:37:17.098Z,100821.44
2022-08-05T12:39:51.165Z,100822.88
2022-08-05T12:42:20.054Z,100813.22
2022-08-05T12:44:47.819Z,100818.81
2022-08-05T12:47:27.110Z,100802.56
2022-08-05T12:50:03.112Z,100799.00
2022-08-05T12:52:39.561Z,100803.75
2022-08-05T12:55:23.895Z,100799.00
2022-08-05T12:58:48.828Z,100788.31
2022-08-05T13:02:01.314Z,100791.75
2022-08-05T13:03:41.511Z,100792.09
2022-08-05T13:06:12.768Z,100790.91
2022-08-05T13:08:39.982Z,100782.06
2022-08-05T13:11:07.946Z,100789.56
2022-08-05T13:14:05.399Z,100783.88
2022-08-05T13:16:28.007Z,100773.22
2022-08-05T13:18:58.457Z,100783.94
2022-08-05T13:21:27.800Z,100782.03
2022-08-05T13:23:55.683Z,100767.94
2022-08-05T13:26:29.818Z,100768.25
2022-08-05T13:28:57.470Z,100769.94
2022-08-05T13:31:34.082Z,100770.25
2022-08-05T13:34:24.989Z,100767.97
2022-08-05T13:36:55.826Z,100769.00
2022-08-05T13:40:13.659Z,100761.50
2022-08-05T13:42:14.318Z,100760.66
2022-08-05T13:44:46.305Z,100765.03
2022-08-05T13:47:34.998Z,100752.53
2022-08-05T13:50:04.114Z,100753.81
2022-08-05T13:52:35.644Z,100762.47
2022-08-05T13:55:07.948Z,100754.56
2022-08-05T13:57:51.391Z,100755.00
2022-08-05T14:00:27.667Z,100743.13
2022-08-05T14:03:01.022Z,100746.66
2022-08-05T14:05:48.220Z,100727.16
2022-08-05T14:08:21.178Z,100749.22
2022-08-05T14:10:54.397Z,100733.13
2022-08-05T14:13:30.320Z,100728.69
2022-08-05T14:16:04.490Z,100725.72
2022-08-05T14:18:33.072Z,100728.94
2022-08-05T14:21:00.152Z,100730.38
2022-08-05T14:23:36.335Z,100728.09
2022-08-05T14:26:04.973Z,100723.63
2022-08-05T14:28:33.384Z,100717.81
2022-08-05T14:31:01.764Z,100720.19
2022-08-05T14:33:57.051Z,100717.91
2022-08-05T14:36:16.188Z,100706.94
2022-08-05T14:38:48.651Z,100705.81
2022-08-05T14:41:17.777Z,100703.56
2022-08-05T14:44:02.298Z,100698.47
2022-08-05T14:46:32.706Z,100697.84
2022-08-05T14:49:06.510Z,100694.56
2022-08-05T14:51:37.650Z,100686.88
2022-08-05T14:54:27.601Z,100683.84
2022-08-05T14:56:54.639Z,100682.41
2022-08-05T14:59:21.804Z,100678.41
2022-08-05T15:01:49.849Z,100681.50
2022-08-05T15:04:22.274Z,100671.44
2022-08-05T15:06:50.702Z,100679.09
2022-08-05T15:09:51.410Z,100685.41
2022-08-05T15:12:06.125Z,100666.63
2022-08-05T15:14:48.231Z,100670.56
2022-08-05T15:17:47.171Z,100668.63
2022-08-05T15:20:06.083Z,100654.97
2022-08-05T15:22:33.393Z,100663.28
2022-08-05T15:25:00.553Z,100660.38
2022-08-05T15:27:38.825Z,100651.53
2022-08-05T15:30:11.059Z,100642.47
2022-08-05T15:32:41.171Z,100649.53
2022-08-05T15:35:10.650Z,100640.81
2022-08-05T15:38:34.178Z,100639.53
2022-08-05T15:40:58.548Z,100640.41
2022-08-05T15:43:20.332Z,100646.13
2022-08-05T15:45:48.108Z,100640.06
2022-08-05T15:48:28.382Z,100635.00
2022-08-05T15:50:56.336Z,100634.78
2022-08-05T15:53:26.508Z,100628.06
2022-08-05T15:56:11.564Z,100635.78
2022-08-05T15:58:40.111Z,100626.19
2022-08-05T16:01:17.064Z,100619.31
2022-08-05T16:03:48.332Z,100630.81
2022-08-05T16:06:20.346Z,100619.84
2022-08-05T16:08:47.920Z,100618.22
2022-08-05T16:11:18.266Z,100630.47
2022-08-05T16:13:47.652Z,100628.78
2022-08-05T16:16:15.494Z,100619.06
2022-08-05T16:18:52.917Z,100617.06
2022-08-05T16:21:20.833Z,100616.22
2022-08-05T16:24:07.611Z,100609.72
2022-08-05T16:27:03.053Z,100618.56
2022-08-05T16:29:37.424Z,100622.75
2022-08-05T16:32:05.256Z,100617.63
2022-08-05T16:34:32.321Z,100621.66
2022-08-05T16:36:59.033Z,100622.84
2022-08-05T16:40:04.735Z,100626.09
2022-08-05T16:42:17.581Z,100625.84
2022-08-05T16:44:54.219Z,100619.03
2022-08-05T16:47:28.772Z,100619.28
2022-08-05T16:50:04.715Z,100624.78
2022-08-05T16:52:33.391Z,100625.56
2022-08-05T16:55:00.588Z,100625.44
2022-08-05T16:57:50.471Z,100623.75
2022-08-05T17:02:58.389Z,100631.09
2022-08-05T17:05:25.106Z,100627.19
2022-08-05T17:07:54.486Z,100629.72
2022-08-05T17:10:21.769Z,100628.31
2022-08-05T17:12:54.836Z,100633.94
2022-08-05T17:15:21.692Z,100641.31
2022-08-05T17:17:54.745Z,100644.06
2022-08-05T17:20:22.274Z,100646.06
2022-08-05T17:22:55.362Z,100641.13
2022-08-05T17:25:39.654Z,100643.72
2022-08-05T17:28:07.017Z,100653.88
2022-08-05T17:30:50.413Z,100655.91
2022-08-05T17:33:19.975Z,100655.50
2022-08-05T17:36:07.876Z,100656.53
2022-08-05T17:38:33.855Z,100654.91
2022-08-05T17:41:01.840Z,100664.13
2022-08-05T17:43:46.995Z,100663.16
2022-08-05T17:46:14.212Z,100666.56
2022-08-05T17:48:43.198Z,100674.88
2022-08-05T17:51:11.521Z,100668.66
2022-08-05T17:53:39.430Z,100666.38
2022-08-05T17:56:09.427Z,100675.84
2022-08-05T17:58:37.777Z,100670.44
2022-08-05T18:01:09.567Z,100667.06
2022-08-05T18:06:29.454Z,100672.91
2022-08-05T18:08:57.776Z,100683.72
2022-08-05T18:11:33.398Z,100681.00
2022-08-05T18:14:07.113Z,100692.25
2022-08-05T18:16:35.739Z,100692.88
2022-08-05T18:19:18.435Z,100692.41
2022-08-05T18:22:07.712Z,100698.72
2022-08-05T18:24:36.509Z,100695.50
2022-08-05T18:27:03.335Z,100687.84
2022-08-05T18:29:39.910Z,100705.31
2022-08-05T18:32:12.956Z,100704.44
2022-08-05T18:34:41.438Z,100709.16
2022-08-05T18:37:12.497Z,100711.75
2022-08-05T18:40:30.933Z,100714.66
2022-08-05T18:42:26.183Z,100718.91
2022-08-05T18:44:56.306Z,100718.22
2022-08-05T18:47:26.734Z,100722.81
2022-08-05T18:50:12.268Z,100723.16
2022-08-05T18:52:50.573Z,100735.06
2022-08-05T18:55:19.527Z,100738.59
2022-08-05T18:57:52.897Z,100748.31
2022-08-05T19:00:48.741Z,100749.00
2022-08-05T19:03:15.521Z,100754.25
2022-08-05T19:06:12.348Z,100752.22
2022-08-05T19:08:30.875Z,100758.69
2022-08-05T19:10:59.428Z,100757.47
2022-08-05T19:13:29.455Z,100762.03
2022-08-05T19:16:03.458Z,100760.19
2022-08-05T19:18:31.277Z,100769.19
2022-08-05T19:20:59.555Z,100763.75
2022-08-05T19:24:08.171Z,100770.72
2022-08-05T19:26:14.633Z,100777.13
2022-08-05T19:28:43.591Z,100787.84
2022-08-05T19:31:13.410Z,100783.53
2022-08-05T19:33:48.376Z,100786.94
2022-08-05T19:36:23.321Z,100787.03
2022-08-05T19:38:50.103Z,100783.47
2022-08-05T19:41:16.944Z,100787.69
2022-08-05T19:44:05.402Z,100788.34
2022-08-05T19:46:40.640Z,100792.38
2022-08-05T19:49:08.089Z,100792.69
2022-08-05T19:52:09.240Z,100791.84
2022-08-05T19:54:31.488Z,100791.50
2022-08-05T19:57:02.117Z,100796.41
2022-08-05T19:59:55.339Z,100796.25
2022-08-05T20:02:22.376Z,100792.31
2022-08-05T20:04:49.980Z,100792.09
2022-08-05T20:07:47.049Z,100795.03
2022-08-05T20:10:13.440Z,100795.53
2022-08-05T20:12:46.420Z,100800.56
2022-08-05T20:15:47.843Z,100802.81
2022-08-05T20:18:10.288Z,100806.50
2022-08-05T20:20:55.996Z,100805.78
2022-08-05T20:23:40.657Z,100806.78
2022-08-05T20:26:16.635Z,100807.47
2022-08-05T20:28:51.047Z,100809.84
2022-08-05T20:31:21.838Z,100814.41
2022-08-05T20:33:50.264Z,100813.75
2022-08-05T20:36:17.954Z,100818.94
2022-08-05T20:38:54.380Z,100814.78
2022-08-05T20:41:44.253Z,100808.66
2022-08-05T20:44:29.202Z,100809.25
2022-08-05T20:47:01.667Z,100808.22
2022-08-05T20:49:33.223Z,100815.53
2022-08-05T20:52:05.474Z,100810.53
2022-08-05T20:54:43.126Z,100813.03
2022-08-05T20:57:42.269Z,100812.69
2022-08-05T21:00:34.990Z,100811.94
2022-08-05T21:03:01.561Z,100812.53
2022-08-05T21:05:47.712Z,100808.81
2022-08-05T21:08:15.184Z,100810.03
2022-08-05T21:10:48.539Z,100808.00
2022-08-05T21:13:37.881Z,100803.41
2022-08-05T21:16:02.417Z,100810.06
2022-08-05T21:18:30.533Z,100797.81
2022-08-05T21:20:57.606Z,100804.59
2022-08-05T21:23:24.884Z,100799.66
2022-08-05T21:25:51.733Z,100805.13
2022-08-05T21:28:23.756Z,100811.41
2022-08-05T21:30:50.861Z,100801.63
2022-08-05T21:33:22.512Z,100805.34
2022-08-05T21:35:58.700Z,100812.09
2022-08-05T21:38:26.803Z,100805.00
2022-08-05T21:40:53.830Z,100813.47
2022-08-05T21:43:24.615Z,100813.44
2022-08-05T21:45:57.406Z,100821.25
2022-08-05T21:48:28.921Z,100811.75
2022-08-05T21:50:56.281Z,100814.53
2022-08-05T21:53:27.268Z,100810.69
2022-08-05T21:56:06.136Z,100805.78
2022-08-05T21:58:42.030Z,100805.44
2022-08-05T22:01:10.552Z,100817.28
2022-08-05T22:03:48.430Z,100819.16
2022-08-05T22:06:16.401Z,100811.81
2022-08-05T22:08:52.054Z,100820.31
2022-08-05T22:11:35.097Z,100819.63
2022-08-05T22:14:34.386Z,100821.97
2022-08-05T22:16:53.045Z,100824.09
2022-08-05T22:20:01.004Z,100827.63
2022-08-05T22:22:22.882Z,100816.13
2022-08-05T22:25:18.008Z,100821.50
2022-08-05T22:28:09.438Z,100834.59
2022-08-05T22:30:55.784Z,100832.41
2022-08-05T22:33:58.112Z,100829.50
2022-08-05T22:36:15.311Z,100831.97
2022-08-05T22:38:43.966Z,100835.28
2022-08-05T22:41:16.814Z,100837.13
2022-08-05T22:44:04.038Z,100836.94
2022-08-05T22:46:31.171Z,100840.81
2022-08-05T22:48:59.168Z,100836.72
2022-08-05T22:52:04.393Z,100847.16
2022-08-05T22:54:12.700Z,100839.13
2022-08-05T22:56:40.686Z,100847.31
2022-08-05T22:59:43.833Z,100841.56
2022-08-05T23:02:06.272Z,100840.50
2022-08-05T23:04:34.975Z,100838.75
2022-08-05T23:07:02.094Z,100835.91
2022-08-05T23:09:53.362Z,100837.31
2022-08-05T23:12:18.083Z,100830.03
2022-08-05T23:14:45.425Z,100823.91
2022-08-05T23:17:35.086Z,100823.19
2022-08-05T23:20:17.460Z,100821.13
2022-08-05T23:22:48.366Z,100817.19
2022-08-05T23:25:52.816Z,100819.00
2022-08-05T23:28:06.773Z,100814.00
2022-08-05T23:30:40.258Z,100814.34
2022-08-05T23:33:16.309Z,100811.69
2022-08-05T23:35:50.305Z,100815.38
2022-08-05T23:38:17.302Z,100816.63
2022-08-05T23:40:49.438Z,100815.91
2022-08-05T23:43:25.700Z,100809.06
2022-08-05T23:46:04.655Z,100820.22
2022-08-05T23:48:31.295Z,100824.28
2022-08-05T23:50:59.583Z,100818.41
2022-08-05T23:53:46.139Z,100812.06
2022-08-05T23:56:13.399Z,100812.00
2022-08-05T23:58:47.050Z,100806.97
